createdAt,value
2022-09-13T00:00:14.781Z,8.56
2022-09-13T00:02:41.405Z,8.54
2022-09-13T00:05:08.086Z,8.51
2022-09-13T00:07:34.568Z,8.49
2022-09-13T00:10:01.142Z,8.43
2022-09-13T00:12:27.695Z,8.43
2022-09-13T00:14:54.154Z,8.42
2022-09-13T00:17:21.675Z,8.41
2022-09-13T00:19:48.098Z,8.44
2022-09-13T00:22:14.522Z,8.45
2022-09-13T00:24:41.503Z,8.36
2022-09-13T00:27:08.147Z,8.32
2022-09-13T00:29:34.624Z,8.33
2022-09-13T00:32:01.084Z,8.40
2022-09-13T00:34:27.568Z,8.38
2022-09-13T00:36:53.988Z,8.36
2022-09-13T00:39:20.619Z,8.36
2022-09-13T00:41:47.102Z,8.36
2022-09-13T00:44:50.800Z,8.30
2022-09-13T00:47:43.334Z,8.22
2022-09-13T00:50:34.438Z,8.19
2022-09-13T00:53:13.820Z,8.11
2022-09-13T00:55:53.581Z,8.10
2022-09-13T00:58:26.341Z,8.09
2022-09-13T01:00:53.759Z,8.08
2022-09-13T01:03:21.219Z,8.03
2022-09-13T01:05:52.224Z,8.00
2022-09-13T01:08:24.975Z,7.94
2022-09-13T01:10:52.357Z,7.97
2022-09-13T01:13:21.716Z,7.87
2022-09-13T01:15:48.349Z,7.72
2022-09-13T01:18:15.121Z,7.63
2022-09-13T01:21:21.636Z,7.59
2022-09-13T01:24:11.496Z,7.63
2022-09-13T01:26:59.854Z,7.60
2022-09-13T01:29:57.482Z,7.55
2022-09-13T01:32:27.848Z,7.48
2022-09-13T01:35:17.000Z,7.46
2022-09-13T01:38:07.778Z,7.36
2022-09-13T01:41:01.813Z,7.35
2022-09-13T01:44:08.773Z,7.31
2022-09-13T01:46:52.682Z,7.25
2022-09-13T01:49:47.105Z,7.20
2022-09-13T01:52:38.163Z,7.21
2022-09-13T01:55:27.400Z,7.17
2022-09-13T01:58:02.734Z,7.12
2022-09-13T02:00:34.351Z,7.18
2022-09-13T02:03:23.682Z,7.10
2022-09-13T02:06:06.534Z,6.93
2022-09-13T02:08:37.991Z,6.88
2022-09-13T02:11:09.804Z,6.94
2022-09-13T02:13:41.557Z,6.80
2022-09-13T02:16:13.194Z,6.90
2022-09-13T02:18:41.492Z,6.87
2022-09-13T02:21:13.333Z,6.91
2022-09-13T02:23:44.716Z,6.93
2022-09-13T02:26:13.219Z,6.85
2022-09-13T02:28:44.100Z,6.97
2022-09-13T02:31:12.686Z,7.02
2022-09-13T02:33:48.703Z,6.95
2022-09-13T02:36:20.001Z,6.94
2022-09-13T02:38:57.172Z,6.95
2022-09-13T02:41:36.757Z,6.91
2022-09-13T02:44:14.743Z,6.79
2022-09-13T02:47:22.646Z,6.76
2022-09-13T02:50:16.213Z,6.80
2022-09-13T02:53:15.808Z,6.70
2022-09-13T02:55:48.549Z,6.71
2022-09-13T02:58:36.744Z,6.62
2022-09-13T03:01:03.729Z,6.60
2022-09-13T03:03:30.571Z,6.64
2022-09-13T03:05:56.998Z,6.62
2022-09-13T03:08:23.852Z,6.56
2022-09-13T03:11:00.328Z,6.58
2022-09-13T03:13:35.003Z,6.54
2022-09-13T03:16:20.151Z,6.55
2022-09-13T03:19:21.236Z,6.52
2022-09-13T03:22:19.101Z,6.49
2022-09-13T03:25:10.434Z,6.45
2022-09-13T03:28:01.194Z,6.38
2022-09-13T03:30:27.915Z,6.40
2022-09-13T03:33:16.219Z,6.33
2022-09-13T03:35:53.711Z,6.34
2022-09-13T03:38:27.286Z,6.30
2022-09-13T03:41:21.772Z,6.30
2022-09-13T03:43:50.913Z,6.32
2022-09-13T03:46:20.439Z,6.27
2022-09-13T03:48:47.479Z,6.31
2022-09-13T03:51:14.362Z,6.26
2022-09-13T03:53:48.157Z,6.22
2022-09-13T03:56:15.629Z,6.20
2022-09-13T03:58:42.752Z,6.15
2022-09-13T04:01:10.336Z,6.09
2022-09-13T04:03:38.165Z,6.06
2022-09-13T04:06:05.009Z,6.05
2022-09-13T04:08:32.849Z,6.12
2022-09-13T04:10:59.621Z,6.11
2022-09-13T04:13:26.886Z,6.15
2022-09-13T04:15:53.439Z,6.14
2022-09-13T04:18:20.184Z,6.21
2022-09-13T04:20:54.811Z,6.23
2022-09-13T04:23:22.739Z,6.29
2022-09-13T04:25:49.336Z,6.29
2022-09-13T04:28:16.839Z,6.38
2022-09-13T04:30:49.951Z,6.38
2022-09-13T04:33:19.445Z,6.51
2022-09-13T04:35:45.925Z,6.56
2022-09-13T04:38:12.369Z,6.63
2022-09-13T04:40:39.553Z,6.67
2022-09-13T04:43:06.093Z,6.72
2022-09-13T04:45:32.838Z,6.75
2022-09-13T04:48:00.005Z,6.80
2022-09-13T04:50:26.562Z,6.87
2022-09-13T04:52:55.637Z,6.97
2022-09-13T04:55:22.313Z,7.04
2022-09-13T04:57:53.253Z,7.13
2022-09-13T05:00:20.092Z,7.24
2022-09-13T05:02:46.658Z,7.33
2022-09-13T05:05:13.267Z,7.40
2022-09-13T05:07:39.724Z,7.47
2022-09-13T05:10:06.709Z,7.55
2022-09-13T05:12:33.171Z,7.62
2022-09-13T05:14:59.603Z,7.70
2022-09-13T05:17:26.083Z,7.79
2022-09-13T05:19:52.506Z,7.94
2022-09-13T05:22:19.117Z,7.98
2022-09-13T05:24:45.611Z,8.07
2022-09-13T05:27:12.139Z,8.09
2022-09-13T05:29:38.605Z,8.07
2022-09-13T05:32:05.201Z,8.25
2022-09-13T05:34:32.363Z,8.47
2022-09-13T05:36:58.767Z,8.62
2022-09-13T05:39:43.953Z,8.76
2022-09-13T05:42:11.824Z,8.77
2022-09-13T05:44:38.318Z,8.81
2022-09-13T05:47:05.631Z,8.93
2022-09-13T05:49:32.383Z,9.02
2022-09-13T05:51:58.963Z,9.16
2022-09-13T05:54:25.462Z,9.26
2022-09-13T05:56:54.205Z,9.34
2022-09-13T05:59:20.777Z,9.50
2022-09-13T06:01:48.415Z,9.62
2022-09-13T06:04:14.912Z,9.77
2022-09-13T06:06:41.532Z,9.93
2022-09-13T06:09:09.249Z,10.19
2022-09-13T06:11:35.675Z,10.38
2022-09-13T06:14:02.201Z,10.39
2022-09-13T06:16:28.713Z,10.49
2022-09-13T06:18:55.270Z,10.61
2022-09-13T06:21:25.923Z,10.74
2022-09-13T06:23:55.356Z,10.96
2022-09-13T06:26:23.877Z,11.07
2022-09-13T06:28:52.579Z,11.21
2022-09-13T06:31:20.995Z,11.30
2022-09-13T06:33:47.703Z,11.43
2022-09-13T06:36:19.098Z,11.50
2022-09-13T06:38:46.764Z,11.66
2022-09-13T06:41:18.773Z,11.92
2022-09-13T06:43:46.234Z,12.12
2022-09-13T06:46:20.462Z,12.24
2022-09-13T06:48:50.575Z,12.34
2022-09-13T06:51:19.208Z,12.48
2022-09-13T06:53:47.420Z,12.49
2022-09-13T06:56:21.831Z,12.60
2022-09-13T06:58:51.081Z,12.83
2022-09-13T07:01:18.873Z,13.23
2022-09-13T07:03:50.549Z,13.67
2022-09-13T07:06:22.449Z,14.61
2022-09-13T07:08:51.173Z,17.55
2022-09-13T07:11:19.948Z,20.37
2022-09-13T07:13:53.840Z,22.56
2022-09-13T07:16:22.614Z,24.80
2022-09-13T07:18:53.611Z,26.41
2022-09-13T07:21:20.706Z,27.93
2022-09-13T07:23:47.286Z,28.52
2022-09-13T07:26:13.866Z,28.93
2022-09-13T07:28:42.626Z,29.52
2022-09-13T07:31:12.390Z,29.44
2022-09-13T07:33:40.102Z,30.01
2022-09-13T07:36:07.393Z,30.35
2022-09-13T07:38:38.700Z,30.64
2022-09-13T07:41:06.760Z,30.82
2022-09-13T07:43:36.346Z,31.40
2022-09-13T07:46:08.850Z,29.93
2022-09-13T07:48:38.093Z,30.91
2022-09-13T07:51:05.573Z,32.62
2022-09-13T07:53:33.509Z,33.27
2022-09-13T07:56:04.337Z,33.13
2022-09-13T07:58:32.403Z,33.56
2022-09-13T08:01:13.101Z,32.45
2022-09-13T08:03:39.703Z,31.64
2022-09-13T08:06:07.480Z,32.12
2022-09-13T08:08:34.933Z,31.73
2022-09-13T08:11:02.512Z,32.71
2022-09-13T08:13:29.398Z,32.66
2022-09-13T08:15:56.482Z,31.26
2022-09-13T08:18:23.068Z,27.89
2022-09-13T08:20:49.638Z,26.68
2022-09-13T08:23:16.066Z,25.05
2022-09-13T08:25:42.541Z,23.79
2022-09-13T08:28:13.544Z,22.65
2022-09-13T08:30:41.139Z,21.93
2022-09-13T08:33:08.104Z,21.52
2022-09-13T08:35:34.741Z,21.13
2022-09-13T08:38:01.269Z,20.12
2022-09-13T08:40:31.248Z,20.07
2022-09-13T08:43:35.663Z,19.52
2022-09-13T08:46:26.648Z,19.46
2022-09-13T08:48:56.197Z,19.72
2022-09-13T08:51:47.355Z,20.39
2022-09-13T08:54:16.407Z,20.56
2022-09-13T08:56:59.639Z,20.47
2022-09-13T09:00:26.688Z,20.15
2022-09-13T09:03:02.305Z,19.94
2022-09-13T09:05:32.637Z,20.27
2022-09-13T09:08:07.136Z,20.19
2022-09-13T09:10:41.334Z,20.26
2022-09-13T09:13:29.625Z,19.99
2022-09-13T09:16:03.178Z,19.56
2022-09-13T09:18:33.753Z,19.67
2022-09-13T09:21:01.853Z,19.23
2022-09-13T09:23:52.143Z,19.33
2022-09-13T09:26:21.639Z,19.30
2022-09-13T09:28:55.086Z,19.65
2022-09-13T09:31:31.414Z,19.58
2022-09-13T09:34:18.752Z,19.65
2022-09-13T09:36:56.735Z,19.69
2022-09-13T09:39:26.330Z,19.45
2022-09-13T09:41:55.331Z,19.52
2022-09-13T09:44:24.345Z,19.39
2022-09-13T09:46:56.933Z,19.77
2022-09-13T09:49:55.837Z,19.41
2022-09-13T09:52:28.682Z,19.22
2022-09-13T09:54:59.684Z,19.58
2022-09-13T09:57:54.227Z,19.68
2022-09-13T10:00:23.358Z,19.79
2022-09-13T10:02:52.697Z,19.94
2022-09-13T10:05:20.918Z,20.09
2022-09-13T10:07:55.936Z,19.88
2022-09-13T10:10:27.983Z,19.97
2022-09-13T10:12:56.286Z,19.80
2022-09-13T10:15:35.783Z,19.52
2022-09-13T10:18:43.322Z,19.04
2022-09-13T10:21:19.078Z,19.39
2022-09-13T10:23:47.587Z,19.11
2022-09-13T10:26:23.975Z,18.97
2022-09-13T10:29:03.840Z,19.00
2022-09-13T10:31:34.436Z,18.86
2022-09-13T10:34:03.730Z,18.80
2022-09-13T10:36:51.531Z,19.14
2022-09-13T10:39:21.763Z,18.95
2022-09-13T10:41:55.327Z,19.06
2022-09-13T10:45:06.516Z,19.30
2022-09-13T10:47:38.303Z,19.32
2022-09-13T10:50:22.436Z,19.16
2022-09-13T10:52:50.829Z,19.44
2022-09-13T10:55:19.828Z,19.54
2022-09-13T10:57:47.967Z,19.37
2022-09-13T11:00:20.262Z,19.29
2022-09-13T11:03:14.763Z,19.18
2022-09-13T11:05:47.809Z,19.48
2022-09-13T11:08:43.699Z,19.75
2022-09-13T11:11:25.396Z,19.41
2022-09-13T11:13:55.813Z,19.50
2022-09-13T11:16:37.696Z,19.75
2022-09-13T11:19:22.067Z,19.81
2022-09-13T11:21:56.689Z,19.58
2022-09-13T11:24:49.206Z,19.26
2022-09-13T11:27:40.133Z,19.32
2022-09-13T11:30:14.876Z,19.34
2022-09-13T11:33:09.005Z,18.94
2022-09-13T11:35:44.348Z,19.09
2022-09-13T11:38:49.907Z,18.90
2022-09-13T11:41:16.558Z,19.10
2022-09-13T11:43:57.514Z,19.14
2022-09-13T11:46:43.838Z,19.29
2022-09-13T11:49:38.022Z,19.17
2022-09-13T11:52:09.830Z,19.26
2022-09-13T11:55:00.249Z,19.34
2022-09-13T11:57:33.658Z,19.40
2022-09-13T12:00:10.741Z,19.26
2022-09-13T12:02:42.227Z,19.30
2022-09-13T12:05:22.477Z,19.44
2022-09-13T12:08:05.288Z,19.24
2022-09-13T12:10:40.614Z,19.15
2022-09-13T12:13:13.018Z,19.10
2022-09-13T12:15:42.097Z,19.30
2022-09-13T12:18:35.605Z,19.23
2022-09-13T12:21:24.108Z,19.18
2022-09-13T12:24:06.341Z,19.18
2022-09-13T12:26:45.216Z,18.95
2022-09-13T12:29:16.897Z,18.79
2022-09-13T12:31:43.856Z,18.60
2022-09-13T12:34:18.057Z,18.53
2022-09-13T12:37:08.759Z,18.47
2022-09-13T12:39:44.074Z,18.50
2022-09-13T12:42:53.541Z,18.41
2022-09-13T12:45:38.777Z,18.31
2022-09-13T12:48:28.636Z,18.16
2022-09-13T12:51:15.121Z,18.35
2022-09-13T12:54:05.712Z,18.39
2022-09-13T12:56:40.155Z,18.34
2022-09-13T12:59:40.808Z,18.33
2022-09-13T13:02:27.453Z,18.30
2022-09-13T13:04:57.806Z,18.18
2022-09-13T13:07:24.549Z,18.16
2022-09-13T13:09:53.285Z,18.08
2022-09-13T13:12:31.041Z,18.11
2022-09-13T13:14:58.475Z,18.02
2022-09-13T13:17:45.023Z,17.91
2022-09-13T13:20:45.958Z,17.96
2022-09-13T13:23:18.123Z,17.88
2022-09-13T13:26:10.083Z,17.87
2022-09-13T13:28:45.350Z,17.91
2022-09-13T13:31:35.739Z,18.05
2022-09-13T13:34:08.502Z,18.26
2022-09-13T13:36:41.234Z,18.23
2022-09-13T13:39:13.913Z,18.31
2022-09-13T13:41:56.231Z,18.33
2022-09-13T13:44:22.703Z,18.45
2022-09-13T13:46:53.925Z,18.34
2022-09-13T13:49:32.677Z,18.35
2022-09-13T13:52:11.012Z,18.34
2022-09-13T13:54:47.603Z,18.35
2022-09-13T13:57:33.741Z,18.35
2022-09-13T14:00:13.549Z,18.35
2022-09-13T14:02:54.694Z,18.27
2022-09-13T14:05:42.089Z,18.17
2022-09-13T14:08:27.513Z,18.30
2022-09-13T14:11:29.872Z,18.51
2022-09-13T14:14:25.344Z,18.39
2022-09-13T14:17:10.386Z,18.41
2022-09-13T14:19:44.706Z,18.48
2022-09-13T14:22:21.065Z,18.48
2022-09-13T14:24:55.678Z,18.50
2022-09-13T14:27:23.951Z,18.52
2022-09-13T14:30:32.806Z,18.54
2022-09-13T14:32:59.607Z,18.46
2022-09-13T14:35:26.043Z,18.35
2022-09-13T14:37:52.604Z,18.37
2022-09-13T14:40:23.792Z,18.35
2022-09-13T14:42:51.894Z,18.47
2022-09-13T14:45:31.997Z,18.41
2022-09-13T14:48:12.913Z,18.30
2022-09-13T14:50:42.287Z,18.33
2022-09-13T14:53:14.934Z,18.28
2022-09-13T14:55:44.075Z,18.31
2022-09-13T14:58:17.221Z,18.21
2022-09-13T15:00:50.826Z,18.11
2022-09-13T15:03:18.697Z,18.17
2022-09-13T15:06:00.700Z,18.07
2022-09-13T15:08:33.215Z,18.07
2022-09-13T15:11:01.887Z,17.96
2022-09-13T15:13:28.730Z,17.88
2022-09-13T15:15:55.522Z,17.95
2022-09-13T15:18:25.243Z,17.98
2022-09-13T15:21:00.102Z,18.02
2022-09-13T15:23:35.662Z,17.98
2022-09-13T15:26:08.946Z,17.95
2022-09-13T15:28:41.261Z,17.88
2022-09-13T15:31:08.155Z,17.88
2022-09-13T15:33:35.535Z,17.85
2022-09-13T15:36:20.051Z,17.74
2022-09-13T15:39:08.933Z,17.72
2022-09-13T15:41:37.319Z,17.68
2022-09-13T15:44:06.381Z,17.73
2022-09-13T15:46:35.598Z,17.81
2022-09-13T15:49:04.237Z,17.78
2022-09-13T15:51:38.660Z,17.79
2022-09-13T15:54:11.997Z,17.67
2022-09-13T15:56:42.169Z,17.69
2022-09-13T15:59:13.051Z,17.70
2022-09-13T16:01:39.612Z,17.66
2022-09-13T16:04:06.614Z,17.63
2022-09-13T16:06:33.476Z,17.72
2022-09-13T16:09:00.560Z,17.59
2022-09-13T16:11:27.714Z,17.61
2022-09-13T16:13:54.333Z,17.57
2022-09-13T16:16:20.907Z,17.46
2022-09-13T16:18:47.430Z,17.39
2022-09-13T16:21:14.000Z,17.48
2022-09-13T16:23:40.489Z,17.40
2022-09-13T16:26:07.013Z,17.41
2022-09-13T16:28:33.826Z,17.37
2022-09-13T16:31:00.287Z,17.30
2022-09-13T16:33:26.813Z,17.35
2022-09-13T16:35:53.244Z,17.29
2022-09-13T16:38:19.751Z,17.25
2022-09-13T16:40:46.578Z,17.28
2022-09-13T16:43:13.640Z,17.19
2022-09-13T16:45:41.629Z,17.09
2022-09-13T16:48:08.353Z,17.01
2022-09-13T16:50:36.074Z,17.04
2022-09-13T16:53:02.700Z,17.06
2022-09-13T16:55:29.685Z,17.02
2022-09-13T16:57:56.765Z,16.99
2022-09-13T17:00:24.709Z,16.89
2022-09-13T17:02:51.747Z,16.86
2022-09-13T17:05:18.320Z,16.87
2022-09-13T17:07:44.802Z,16.92
2022-09-13T17:10:12.476Z,16.90
2022-09-13T17:12:39.655Z,16.83
2022-09-13T17:15:06.969Z,16.79
2022-09-13T17:17:36.185Z,16.64
2022-09-13T17:20:09.975Z,16.63
2022-09-13T17:22:36.950Z,16.72
2022-09-13T17:25:04.740Z,16.69
2022-09-13T17:27:34.698Z,16.80
2022-09-13T17:30:02.308Z,16.72
2022-09-13T17:32:28.762Z,16.80
2022-09-13T17:34:55.423Z,16.69
2022-09-13T17:37:21.975Z,16.55
2022-09-13T17:39:48.784Z,16.51
2022-09-13T17:42:15.344Z,16.44
2022-09-13T17:44:41.822Z,16.44
2022-09-13T17:47:08.480Z,16.53
2022-09-13T17:49:35.032Z,16.65
2022-09-13T17:52:03.776Z,16.54
2022-09-13T17:54:31.880Z,16.40
2022-09-13T17:56:58.429Z,16.44
2022-09-13T17:59:24.972Z,16.46
2022-09-13T18:01:53.297Z,16.48
2022-09-13T18:04:22.034Z,16.35
2022-09-13T18:06:50.817Z,16.43
2022-09-13T18:09:17.362Z,16.32
2022-09-13T18:11:44.330Z,16.49
2022-09-13T18:14:13.486Z,16.43
2022-09-13T18:16:40.186Z,16.30
2022-09-13T18:19:07.297Z,16.28
2022-09-13T18:21:34.081Z,16.28
2022-09-13T18:24:01.785Z,16.29
2022-09-13T18:26:29.543Z,16.35
2022-09-13T18:28:59.099Z,16.38
2022-09-13T18:31:25.684Z,16.30
2022-09-13T18:33:57.672Z,16.33
2022-09-13T18:36:25.208Z,16.37
2022-09-13T18:38:53.160Z,16.30
2022-09-13T18:41:22.303Z,16.28
2022-09-13T18:43:54.933Z,16.19
2022-09-13T18:46:25.369Z,16.35
2022-09-13T18:48:54.067Z,16.23
2022-09-13T18:51:22.557Z,16.25
2022-09-13T18:53:49.874Z,16.20
2022-09-13T18:56:19.741Z,16.20
2022-09-13T18:58:47.079Z,16.21
2022-09-13T19:01:41.041Z,16.24
2022-09-13T19:04:11.324Z,16.16
2022-09-13T19:06:40.314Z,16.19
2022-09-13T19:09:07.068Z,16.08
2022-09-13T19:11:52.588Z,16.16
2022-09-13T19:14:23.303Z,16.13
2022-09-13T19:16:50.774Z,16.10
2022-09-13T19:19:17.301Z,16.17
2022-09-13T19:21:44.201Z,16.15
2022-09-13T19:24:17.760Z,16.17
2022-09-13T19:26:46.902Z,16.14
2022-09-13T19:29:15.811Z,16.13
2022-09-13T19:31:44.246Z,16.02
2022-09-13T19:34:12.358Z,15.94
2022-09-13T19:36:40.232Z,15.91
2022-09-13T19:39:07.564Z,15.90
2022-09-13T19:41:35.283Z,16.08
2022-09-13T19:44:02.394Z,15.89
2022-09-13T19:46:37.985Z,15.96
2022-09-13T19:49:05.249Z,15.97
2022-09-13T19:51:36.102Z,15.91
2022-09-13T19:54:03.808Z,15.88
2022-09-13T19:56:38.822Z,15.90
2022-09-13T19:59:07.370Z,15.91
2022-09-13T20:01:39.548Z,15.81
2022-09-13T20:04:11.454Z,16.01
2022-09-13T20:06:40.132Z,16.07
2022-09-13T20:09:08.715Z,16.00
2022-09-13T20:11:41.296Z,15.93
2022-09-13T20:14:09.237Z,15.95
2022-09-13T20:16:37.718Z,15.98
2022-09-13T20:19:18.377Z,15.91
2022-09-13T20:21:50.453Z,15.96
2022-09-13T20:24:17.838Z,15.93
2022-09-13T20:26:44.373Z,16.00
2022-09-13T20:29:12.167Z,16.03
2022-09-13T20:31:38.858Z,15.88
2022-09-13T20:34:07.331Z,15.82
2022-09-13T20:36:36.103Z,15.97
2022-09-13T20:39:03.896Z,16.00
2022-09-13T20:41:32.034Z,15.91
2022-09-13T20:43:59.848Z,15.87
2022-09-13T20:46:26.716Z,15.92
2022-09-13T20:48:53.203Z,15.98
2022-09-13T20:51:21.794Z,15.90
2022-09-13T20:53:48.249Z,15.95
2022-09-13T20:56:16.371Z,15.98
2022-09-13T20:58:44.361Z,15.81
2022-09-13T21:01:20.596Z,15.75
2022-09-13T21:03:49.237Z,15.67
2022-09-13T21:06:16.392Z,15.69
2022-09-13T21:08:43.248Z,15.71
2022-09-13T21:11:15.023Z,15.69
2022-09-13T21:13:44.972Z,15.66
2022-09-13T21:16:17.140Z,15.69
2022-09-13T21:18:44.345Z,15.68
2022-09-13T21:21:17.093Z,15.61
2022-09-13T21:23:44.255Z,15.55
2022-09-13T21:26:14.146Z,15.38
2022-09-13T21:28:43.148Z,15.45
2022-09-13T21:31:25.150Z,15.37
2022-09-13T21:33:56.010Z,15.28
2022-09-13T21:36:22.621Z,15.17
2022-09-13T21:38:49.181Z,15.10
2022-09-13T21:41:17.598Z,15.03
2022-09-13T21:43:44.526Z,14.92
2022-09-13T21:46:16.667Z,14.84
2022-09-13T21:48:45.736Z,14.82
2022-09-13T21:51:23.973Z,14.75
2022-09-13T21:53:57.673Z,14.65
2022-09-13T21:56:27.132Z,14.50
2022-09-13T21:58:55.486Z,14.46
2022-09-13T22:01:23.625Z,14.45
2022-09-13T22:03:52.073Z,14.48
2022-09-13T22:06:22.119Z,14.48
2022-09-13T22:08:53.334Z,14.40
2022-09-13T22:11:25.022Z,14.41
2022-09-13T22:13:51.563Z,14.32
2022-09-13T22:16:21.143Z,14.42
2022-09-13T22:18:49.733Z,14.39
2022-09-13T22:21:18.544Z,14.42
2022-09-13T22:23:45.046Z,14.44
2022-09-13T22:26:16.781Z,14.55
2022-09-13T22:28:43.804Z,14.46
2022-09-13T22:31:13.230Z,14.40
2022-09-13T22:33:39.934Z,14.43
2022-09-13T22:36:08.443Z,14.37
2022-09-13T22:38:35.978Z,14.34
2022-09-13T22:41:07.500Z,14.36
2022-09-13T22:43:34.401Z,14.33
2022-09-13T22:46:03.134Z,14.27
2022-09-13T22:48:30.512Z,14.29
2022-09-13T22:50:57.615Z,14.24
2022-09-13T22:53:25.205Z,14.21
2022-09-13T22:55:51.645Z,14.23
2022-09-13T22:58:18.245Z,14.22
2022-09-13T23:00:45.989Z,14.28
2022-09-13T23:03:13.900Z,14.24
2022-09-13T23:05:40.450Z,14.26
2022-09-13T23:08:06.929Z,14.23
2022-09-13T23:10:33.447Z,14.14
2022-09-13T23:13:00.483Z,14.22
2022-09-13T23:15:27.019Z,14.23
2022-09-13T23:17:53.785Z,14.25
2022-09-13T23:20:20.309Z,14.16
2022-09-13T23:22:46.882Z,14.19
2022-09-13T23:25:13.598Z,14.06
2022-09-13T23:27:40.145Z,14.15
2022-09-13T23:30:06.939Z,14.14
2022-09-13T23:32:33.427Z,14.11
2022-09-13T23:34:59.930Z,14.14
2022-09-13T23:37:26.483Z,14.11
2022-09-13T23:39:53.145Z,14.13
2022-09-13T23:42:19.681Z,14.05
2022-09-13T23:44:46.078Z,13.93
2022-09-13T23:47:12.492Z,13.86
2022-09-13T23:49:38.894Z,13.84
2022-09-13T23:52:05.308Z,13.84
2022-09-13T23:54:32.325Z,13.88
2022-09-13T23:56:58.731Z,13.86
2022-09-13T23:59:25.160Z,13.79
